createdAt,value
2023-03-16T00:02:12.668Z,4.47
2023-03-16T00:05:01.497Z,4.00
2023-03-16T00:07:48.197Z,3.60
2023-03-16T00:10:34.598Z,3.90
2023-03-16T00:13:24.808Z,3.30
2023-03-16T00:16:16.773Z,3.80
2023-03-16T00:19:03.742Z,3.70
2023-03-16T00:21:52.193Z,3.80
2023-03-16T00:24:38.663Z,3.60
2023-03-16T00:27:27.045Z,3.07
2023-03-16T00:30:14.394Z,2.93
2023-03-16T00:33:02.083Z,2.80
2023-03-16T00:35:50.320Z,3.30
2023-03-16T00:38:40.126Z,2.83
2023-03-16T00:41:27.269Z,2.90
2023-03-16T00:44:13.844Z,3.00
2023-03-16T00:47:01.655Z,3.40
2023-03-16T00:49:48.284Z,3.27
2023-03-16T00:52:35.349Z,3.10
2023-03-16T00:55:23.293Z,3.20
2023-03-16T00:58:10.084Z,3.17
2023-03-16T01:00:57.405Z,3.23
2023-03-16T01:03:44.342Z,2.80
2023-03-16T01:06:31.826Z,3.30
2023-03-16T01:09:18.253Z,3.30
2023-03-16T01:12:07.669Z,3.03
2023-03-16T01:14:55.346Z,2.90
2023-03-16T01:17:41.799Z,3.30
2023-03-16T01:20:28.547Z,2.90
2023-03-16T01:23:16.501Z,3.20
2023-03-16T01:26:03.869Z,2.90
2023-03-16T01:28:51.984Z,2.97
2023-03-16T01:31:38.305Z,2.87
2023-03-16T01:34:24.885Z,3.67
2023-03-16T01:37:11.326Z,3.43
2023-03-16T01:39:57.568Z,3.63
2023-03-16T01:42:48.471Z,3.00
2023-03-16T01:46:14.204Z,2.67
2023-03-16T01:49:08.980Z,3.07
2023-03-16T01:52:02.381Z,2.77
2023-03-16T01:54:50.901Z,3.57
2023-03-16T01:57:42.528Z,2.73
2023-03-16T02:00:32.093Z,3.00
2023-03-16T02:03:21.657Z,2.53
2023-03-16T02:06:12.955Z,2.80
2023-03-16T02:09:01.286Z,2.77
2023-03-16T02:11:49.004Z,3.13
2023-03-16T02:14:35.241Z,3.17
2023-03-16T02:17:24.638Z,3.17
2023-03-16T02:20:24.066Z,3.03
2023-03-16T02:23:18.451Z,2.70
2023-03-16T02:26:11.278Z,2.77
2023-03-16T02:29:11.698Z,2.77
2023-03-16T02:32:02.571Z,3.10
2023-03-16T02:34:49.015Z,2.90
2023-03-16T02:37:35.726Z,2.80
2023-03-16T02:40:24.541Z,2.93
2023-03-16T02:43:16.090Z,3.20
2023-03-16T02:46:05.290Z,3.43
2023-03-16T02:49:02.307Z,2.97
2023-03-16T02:51:49.084Z,3.40
2023-03-16T02:54:35.714Z,3.00
2023-03-16T02:57:22.609Z,3.20
2023-03-16T03:00:17.070Z,3.40
2023-03-16T03:03:03.640Z,3.30
2023-03-16T03:05:51.370Z,3.57
2023-03-16T03:08:38.253Z,3.20
2023-03-16T03:11:25.223Z,2.90
2023-03-16T03:14:11.790Z,3.50
2023-03-16T03:16:58.330Z,2.80
2023-03-16T03:19:44.947Z,3.07
2023-03-16T03:22:33.867Z,3.43
2023-03-16T03:25:21.985Z,3.30
2023-03-16T03:28:09.149Z,3.50
2023-03-16T03:30:56.125Z,3.43
2023-03-16T03:33:42.807Z,3.07
2023-03-16T03:36:29.512Z,3.20
2023-03-16T03:39:17.172Z,3.50
2023-03-16T03:42:03.860Z,3.53
2023-03-16T03:44:51.021Z,4.20
2023-03-16T03:47:37.815Z,3.20
2023-03-16T03:50:24.222Z,3.40
2023-03-16T03:53:10.604Z,3.23
2023-03-16T03:55:58.465Z,3.13
2023-03-16T03:58:44.815Z,3.10
2023-03-16T04:01:33.843Z,3.47
2023-03-16T04:04:20.216Z,3.70
2023-03-16T04:07:07.054Z,3.90
2023-03-16T04:09:53.658Z,4.03
2023-03-16T04:12:41.488Z,3.90
2023-03-16T04:15:28.263Z,2.87
2023-03-16T04:18:14.840Z,3.57
2023-03-16T04:21:01.155Z,3.60
2023-03-16T04:23:47.746Z,3.67
2023-03-16T04:26:34.255Z,4.67
2023-03-16T04:29:22.345Z,3.20
2023-03-16T04:32:09.473Z,3.90
2023-03-16T04:34:56.429Z,3.33
2023-03-16T04:37:43.067Z,3.73
2023-03-16T04:40:30.339Z,3.43
2023-03-16T04:43:17.060Z,3.73
2023-03-16T04:46:06.762Z,4.27
2023-03-16T04:48:53.845Z,4.17
2023-03-16T04:51:42.432Z,4.37
2023-03-16T04:54:28.890Z,4.57
2023-03-16T04:57:19.243Z,4.60
2023-03-16T05:00:11.640Z,6.57
2023-03-16T05:02:59.650Z,5.07
2023-03-16T05:05:48.316Z,4.10
2023-03-16T05:08:35.071Z,3.90
2023-03-16T05:11:21.459Z,4.70
2023-03-16T05:14:08.193Z,5.60
2023-03-16T05:16:54.953Z,4.40
2023-03-16T05:19:42.864Z,4.57
2023-03-16T05:22:29.696Z,4.70
2023-03-16T05:25:17.507Z,4.80
2023-03-16T05:28:05.351Z,4.90
2023-03-16T05:30:52.314Z,5.10
2023-03-16T05:33:39.264Z,5.33
2023-03-16T05:36:27.261Z,4.70
2023-03-16T05:39:13.748Z,5.77
2023-03-16T05:42:00.127Z,6.57
2023-03-16T05:44:46.704Z,7.00
2023-03-16T05:47:33.244Z,6.23
2023-03-16T05:50:20.284Z,9.00
2023-03-16T05:53:08.782Z,6.57
2023-03-16T05:55:55.306Z,5.83
2023-03-16T05:58:42.209Z,8.20
2023-03-16T06:01:28.793Z,5.77
2023-03-16T06:04:15.268Z,5.50
2023-03-16T06:07:01.670Z,6.00
2023-03-16T06:09:49.474Z,5.87
2023-03-16T06:12:36.090Z,7.33
2023-03-16T06:15:25.090Z,5.97
2023-03-16T06:18:12.261Z,6.17
2023-03-16T06:20:58.862Z,6.10
2023-03-16T06:23:45.478Z,5.80
2023-03-16T06:26:33.308Z,6.80
2023-03-16T06:29:20.268Z,6.00
2023-03-16T06:32:07.271Z,4.53
2023-03-16T06:34:53.831Z,4.07
2023-03-16T06:37:40.445Z,4.10
2023-03-16T06:40:27.692Z,4.50
2023-03-16T06:43:15.410Z,4.40
2023-03-16T06:46:03.318Z,4.60
2023-03-16T06:48:49.916Z,4.97
2023-03-16T06:51:36.877Z,5.13
2023-03-16T06:54:23.514Z,4.77
2023-03-16T06:57:10.056Z,4.27
2023-03-16T06:59:57.764Z,5.47
2023-03-16T07:02:44.608Z,6.10
2023-03-16T07:05:31.400Z,5.30
2023-03-16T07:08:17.765Z,5.97
2023-03-16T07:11:04.454Z,5.03
2023-03-16T07:13:51.794Z,6.07
2023-03-16T07:16:39.699Z,6.13
2023-03-16T07:19:26.222Z,5.90
2023-03-16T07:22:13.080Z,5.93
2023-03-16T07:24:59.445Z,6.57
2023-03-16T07:27:47.448Z,5.37
2023-03-16T07:30:33.803Z,5.27
2023-03-16T07:33:21.495Z,5.60
2023-03-16T07:36:10.659Z,5.43
2023-03-16T07:38:57.320Z,5.90
2023-03-16T07:41:43.842Z,5.20
2023-03-16T07:44:31.259Z,6.33
2023-03-16T07:47:17.602Z,6.40
2023-03-16T07:50:06.088Z,6.33
2023-03-16T07:52:52.920Z,5.63
2023-03-16T07:55:39.733Z,4.90
2023-03-16T07:58:26.431Z,4.97
2023-03-16T08:01:12.930Z,5.80
2023-03-16T08:03:59.337Z,5.20
2023-03-16T08:06:48.209Z,4.97
2023-03-16T08:09:35.824Z,5.80
2023-03-16T08:12:22.679Z,4.63
2023-03-16T08:15:10.210Z,3.10
2023-03-16T08:17:56.843Z,4.60
2023-03-16T08:20:44.527Z,3.20
2023-03-16T08:23:33.557Z,4.00
2023-03-16T08:26:21.099Z,4.07
2023-03-16T08:29:07.610Z,3.20
2023-03-16T08:31:56.319Z,3.93
2023-03-16T08:34:43.118Z,3.40
2023-03-16T08:37:29.941Z,3.60
2023-03-16T08:40:21.040Z,3.67
2023-03-16T08:43:07.333Z,2.93
2023-03-16T08:45:53.804Z,3.50
2023-03-16T08:48:41.633Z,3.87
2023-03-16T08:51:29.479Z,3.37
2023-03-16T08:54:17.061Z,3.40
2023-03-16T08:57:05.316Z,2.97
2023-03-16T08:59:51.969Z,2.87
2023-03-16T09:02:39.063Z,2.93
2023-03-16T09:05:26.862Z,2.60
2023-03-16T09:08:13.670Z,3.97
2023-03-16T09:11:01.622Z,3.27
2023-03-16T09:13:51.253Z,2.93
2023-03-16T09:16:39.628Z,3.30
2023-03-16T09:19:27.081Z,2.70
2023-03-16T09:22:13.686Z,2.90
2023-03-16T09:25:00.090Z,2.77
2023-03-16T09:27:46.750Z,3.30
2023-03-16T09:30:34.930Z,2.60
2023-03-16T09:33:21.767Z,2.37
2023-03-16T09:36:11.363Z,3.13
2023-03-16T09:38:57.675Z,3.33
2023-03-16T09:41:48.561Z,2.30
2023-03-16T09:44:44.349Z,2.27
2023-03-16T09:47:35.947Z,3.13
2023-03-16T09:50:38.236Z,2.60
2023-03-16T09:53:36.357Z,3.17
2023-03-16T09:56:31.706Z,2.87
2023-03-16T09:59:19.103Z,2.70
2023-03-16T10:02:33.507Z,2.40
2023-03-16T10:05:24.758Z,2.60
2023-03-16T10:08:16.702Z,5.00
2023-03-16T10:11:12.772Z,3.57
2023-03-16T10:14:07.363Z,3.73
2023-03-16T10:16:59.481Z,2.60
2023-03-16T10:19:51.285Z,2.67
2023-03-16T10:22:43.373Z,2.50
2023-03-16T10:25:35.639Z,4.83
2023-03-16T10:28:24.616Z,3.13
2023-03-16T10:31:13.951Z,2.90
2023-03-16T10:34:07.133Z,2.80
2023-03-16T10:36:55.576Z,2.50
2023-03-16T10:39:43.904Z,3.07
2023-03-16T10:42:30.680Z,2.93
2023-03-16T10:45:25.275Z,2.87
2023-03-16T10:48:16.709Z,2.77
2023-03-16T10:51:07.774Z,2.80
2023-03-16T10:53:57.059Z,2.70
2023-03-16T10:56:46.030Z,3.23
2023-03-16T10:59:35.336Z,3.17
2023-03-16T11:02:23.716Z,3.37
2023-03-16T11:05:16.914Z,3.63
2023-03-16T11:08:10.682Z,3.47
2023-03-16T11:10:58.992Z,3.20
2023-03-16T11:13:48.768Z,4.07
2023-03-16T11:16:41.613Z,2.83
2023-03-16T11:19:30.561Z,3.00
2023-03-16T11:22:20.473Z,2.60
2023-03-16T11:25:15.589Z,2.77
2023-03-16T11:28:13.249Z,2.57
2023-03-16T11:31:14.680Z,2.57
2023-03-16T11:34:02.742Z,3.30
2023-03-16T11:36:54.930Z,2.60
2023-03-16T11:39:50.777Z,2.87
2023-03-16T11:42:43.355Z,3.07
2023-03-16T11:45:37.194Z,3.13
2023-03-16T11:48:41.505Z,2.40
2023-03-16T11:51:42.361Z,2.70
2023-03-16T11:54:51.141Z,2.70
2023-03-16T11:57:51.910Z,3.13
2023-03-16T12:00:45.960Z,2.33
2023-03-16T12:04:21.807Z,2.40
2023-03-16T12:07:20.423Z,2.60
2023-03-16T12:10:20.163Z,2.47
2023-03-16T12:13:30.374Z,2.73
2023-03-16T12:16:22.611Z,3.03
2023-03-16T12:19:17.240Z,2.20
2023-03-16T12:22:10.319Z,2.57
2023-03-16T12:24:58.226Z,2.20
2023-03-16T12:27:46.250Z,2.93
2023-03-16T12:30:44.232Z,2.47
2023-03-16T12:33:57.996Z,2.20
2023-03-16T12:37:14.195Z,2.50
2023-03-16T12:40:25.889Z,2.03
2023-03-16T12:43:25.444Z,2.20
2023-03-16T12:46:15.659Z,2.57
2023-03-16T12:49:06.094Z,2.00
2023-03-16T12:52:01.517Z,2.40
2023-03-16T12:54:53.018Z,2.10
2023-03-16T12:57:43.977Z,2.10
2023-03-16T13:00:37.189Z,2.00
2023-03-16T13:03:24.380Z,2.10
2023-03-16T13:06:19.359Z,2.23
2023-03-16T13:09:07.670Z,2.50
2023-03-16T13:11:54.371Z,2.57
2023-03-16T13:14:44.132Z,2.77
2023-03-16T13:17:33.218Z,2.70
2023-03-16T13:20:31.135Z,2.47
2023-03-16T13:23:24.079Z,2.10
2023-03-16T13:26:17.472Z,2.93
2023-03-16T13:29:18.454Z,2.07
2023-03-16T13:32:09.747Z,1.93
2023-03-16T13:34:59.524Z,2.53
2023-03-16T13:37:47.168Z,2.13
2023-03-16T13:40:35.568Z,2.30
2023-03-16T13:43:25.632Z,2.43
2023-03-16T13:46:16.971Z,2.90
2023-03-16T13:49:05.894Z,2.40
2023-03-16T13:51:52.759Z,2.53
2023-03-16T13:54:39.234Z,2.50
2023-03-16T13:57:29.484Z,2.23
2023-03-16T14:00:20.100Z,3.10
2023-03-16T14:03:17.664Z,2.20
2023-03-16T14:06:07.492Z,2.67
2023-03-16T14:08:58.752Z,2.07
2023-03-16T14:11:48.599Z,2.10
2023-03-16T14:14:41.022Z,2.00
2023-03-16T14:17:30.043Z,1.70
2023-03-16T14:20:20.990Z,2.90
2023-03-16T14:23:21.900Z,2.30
2023-03-16T14:26:14.011Z,2.20
2023-03-16T14:29:06.249Z,2.13
2023-03-16T14:31:52.989Z,1.97
2023-03-16T14:34:40.784Z,2.03
2023-03-16T14:37:37.212Z,1.80
2023-03-16T14:40:30.750Z,1.80
2023-03-16T14:43:17.399Z,2.07
2023-03-16T14:46:05.667Z,1.80
2023-03-16T14:48:52.498Z,1.67
2023-03-16T14:51:41.841Z,2.00
2023-03-16T14:54:31.637Z,2.90
2023-03-16T14:57:19.789Z,2.10
2023-03-16T15:00:10.235Z,2.20
2023-03-16T15:03:05.039Z,2.00
2023-03-16T15:05:53.012Z,1.83
2023-03-16T15:08:45.099Z,1.63
2023-03-16T15:11:31.760Z,2.10
2023-03-16T15:14:39.829Z,2.13
2023-03-16T15:17:27.019Z,2.50
2023-03-16T15:20:15.552Z,2.40
2023-03-16T15:23:04.831Z,2.60
2023-03-16T15:25:57.292Z,1.73
2023-03-16T15:28:43.954Z,2.30
2023-03-16T15:31:32.007Z,2.00
2023-03-16T15:34:18.405Z,2.10
2023-03-16T15:37:04.968Z,2.00
2023-03-16T15:39:51.471Z,2.50
2023-03-16T15:42:37.684Z,2.10
2023-03-16T15:45:25.375Z,2.20
2023-03-16T15:48:13.321Z,2.60
2023-03-16T15:51:01.993Z,2.03
2023-03-16T15:53:52.596Z,2.47
2023-03-16T15:56:53.125Z,2.70
2023-03-16T15:59:41.803Z,2.07
2023-03-16T16:02:31.959Z,2.13
2023-03-16T16:05:20.207Z,2.70
2023-03-16T16:08:07.168Z,2.17
2023-03-16T16:10:53.894Z,2.30
2023-03-16T16:13:44.838Z,2.27
2023-03-16T16:16:33.656Z,2.13
2023-03-16T16:19:19.982Z,2.37
2023-03-16T16:22:12.874Z,2.07
2023-03-16T16:24:59.788Z,2.27
2023-03-16T16:27:47.021Z,2.13
2023-03-16T16:30:33.841Z,2.37
2023-03-16T16:33:25.644Z,2.57
2023-03-16T16:36:17.570Z,2.50
2023-03-16T16:39:06.713Z,2.80
2023-03-16T16:41:56.280Z,2.47
2023-03-16T16:44:42.845Z,2.70
2023-03-16T16:47:29.531Z,2.40
2023-03-16T16:50:18.218Z,2.67
2023-03-16T16:53:20.667Z,2.70
2023-03-16T16:56:13.468Z,2.83
2023-03-16T16:59:03.461Z,2.73
2023-03-16T17:01:51.785Z,2.93
2023-03-16T17:04:39.366Z,2.33
2023-03-16T17:07:26.452Z,3.13
2023-03-16T17:10:16.720Z,2.57
2023-03-16T17:13:05.805Z,2.87
2023-03-16T17:15:54.520Z,3.07
2023-03-16T17:18:41.508Z,2.73
2023-03-16T17:21:31.565Z,2.77
2023-03-16T17:24:18.306Z,3.00
2023-03-16T17:27:05.471Z,2.80
2023-03-16T17:29:53.614Z,2.93
2023-03-16T17:32:40.114Z,3.00
2023-03-16T17:35:27.168Z,3.30
2023-03-16T17:38:18.912Z,3.10
2023-03-16T17:41:06.189Z,3.27
2023-03-16T17:43:54.433Z,3.43
2023-03-16T17:46:42.714Z,3.37
2023-03-16T17:49:30.713Z,3.03
2023-03-16T17:52:19.285Z,3.17
2023-03-16T17:55:06.465Z,3.00
2023-03-16T17:57:54.469Z,3.07
2023-03-16T18:00:42.269Z,2.93
2023-03-16T18:03:32.808Z,3.00
2023-03-16T18:06:23.858Z,3.10
2023-03-16T18:09:11.000Z,3.67
2023-03-16T18:11:57.643Z,3.03
2023-03-16T18:14:44.133Z,3.20
2023-03-16T18:17:33.453Z,3.47
2023-03-16T18:20:30.817Z,3.50
2023-03-16T18:23:19.658Z,3.60
2023-03-16T18:26:07.802Z,4.00
2023-03-16T18:28:55.531Z,3.87
2023-03-16T18:31:43.338Z,4.00
2023-03-16T18:34:33.752Z,3.60
2023-03-16T18:37:24.119Z,3.90
2023-03-16T18:40:13.293Z,3.50
2023-03-16T18:42:59.861Z,3.90
2023-03-16T18:45:47.238Z,3.37
2023-03-16T18:48:35.408Z,3.90
2023-03-16T18:51:22.338Z,3.73
2023-03-16T18:54:21.342Z,4.17
2023-03-16T18:57:16.682Z,4.13
2023-03-16T19:00:03.637Z,3.97
2023-03-16T19:02:54.508Z,3.80
2023-03-16T19:05:41.745Z,4.30
2023-03-16T19:08:29.526Z,3.40
2023-03-16T19:11:18.095Z,3.40
2023-03-16T19:14:04.572Z,3.43
2023-03-16T19:16:51.947Z,3.80
2023-03-16T19:19:38.774Z,3.60
2023-03-16T19:22:25.216Z,4.00
2023-03-16T19:25:18.699Z,3.77
2023-03-16T19:28:08.791Z,4.13
2023-03-16T19:30:56.335Z,5.30
2023-03-16T19:33:43.063Z,4.47
2023-03-16T19:36:31.713Z,3.83
2023-03-16T19:39:18.768Z,4.63
2023-03-16T19:42:05.441Z,4.53
2023-03-16T19:44:53.343Z,4.10
2023-03-16T19:47:39.897Z,3.53
2023-03-16T19:50:28.215Z,4.27
2023-03-16T19:53:17.710Z,3.67
2023-03-16T19:56:04.506Z,3.20
2023-03-16T19:58:53.603Z,3.30
2023-03-16T20:01:42.012Z,4.03
2023-03-16T20:04:29.213Z,4.00
2023-03-16T20:07:16.935Z,3.60
2023-03-16T20:10:03.735Z,3.70
2023-03-16T20:12:52.066Z,3.27
2023-03-16T20:15:38.915Z,3.77
2023-03-16T20:18:28.737Z,4.13
2023-03-16T20:21:16.992Z,3.30
2023-03-16T20:24:04.248Z,3.43
2023-03-16T20:26:53.456Z,3.77
2023-03-16T20:29:40.148Z,3.60
2023-03-16T20:32:31.485Z,3.57
2023-03-16T20:35:22.617Z,3.50
2023-03-16T20:38:12.745Z,3.50
2023-03-16T20:40:59.288Z,4.00
2023-03-16T20:43:45.912Z,3.93
2023-03-16T20:46:34.361Z,3.33
2023-03-16T20:49:32.806Z,3.90
2023-03-16T20:52:22.563Z,3.77
2023-03-16T20:55:10.374Z,4.30
2023-03-16T20:57:57.514Z,3.83
2023-03-16T21:00:44.317Z,3.90
2023-03-16T21:03:33.324Z,4.07
2023-03-16T21:06:23.669Z,3.70
2023-03-16T21:09:11.554Z,3.90
2023-03-16T21:11:58.072Z,3.63
2023-03-16T21:14:44.807Z,3.93
2023-03-16T21:17:33.251Z,4.10
2023-03-16T21:20:22.562Z,3.90
2023-03-16T21:23:13.936Z,4.13
2023-03-16T21:26:03.728Z,4.17
2023-03-16T21:28:56.497Z,4.10
2023-03-16T21:31:42.923Z,3.73
2023-03-16T21:34:34.924Z,4.50
2023-03-16T21:37:24.365Z,4.40
2023-03-16T21:40:19.702Z,4.23
2023-03-16T21:43:09.586Z,4.30
2023-03-16T21:45:57.985Z,4.90
2023-03-16T21:48:45.660Z,4.43
2023-03-16T21:51:32.087Z,4.53
2023-03-16T21:54:19.293Z,4.23
2023-03-16T21:57:15.201Z,4.97
2023-03-16T22:00:04.992Z,4.27
2023-03-16T22:02:54.503Z,5.07
2023-03-16T22:05:42.927Z,4.23
2023-03-16T22:08:31.638Z,4.43
2023-03-16T22:11:19.824Z,4.83
2023-03-16T22:14:09.804Z,4.23
2023-03-16T22:16:58.146Z,4.80
2023-03-16T22:19:44.414Z,4.63
2023-03-16T22:22:33.931Z,4.80
2023-03-16T22:25:23.271Z,4.53
2023-03-16T22:28:14.080Z,4.93
2023-03-16T22:31:03.412Z,4.97
2023-03-16T22:33:51.481Z,4.50
2023-03-16T22:36:38.009Z,4.43
2023-03-16T22:39:24.848Z,4.40
2023-03-16T22:42:26.916Z,4.87
2023-03-16T22:45:18.904Z,4.83
2023-03-16T22:48:17.593Z,4.87
2023-03-16T22:51:06.172Z,4.47
2023-03-16T22:53:56.046Z,4.50
2023-03-16T22:56:43.974Z,4.43
2023-03-16T22:59:30.440Z,4.87
2023-03-16T23:02:19.108Z,4.30
2023-03-16T23:05:19.472Z,4.17
2023-03-16T23:08:14.897Z,4.53
2023-03-16T23:11:01.818Z,5.20
2023-03-16T23:13:48.839Z,5.10
2023-03-16T23:16:37.570Z,4.57
2023-03-16T23:19:26.487Z,5.03
2023-03-16T23:22:13.419Z,4.50
2023-03-16T23:25:01.203Z,4.90
2023-03-16T23:27:47.879Z,4.80
2023-03-16T23:30:34.871Z,4.07
2023-03-16T23:33:21.745Z,4.43
2023-03-16T23:36:15.357Z,4.30
2023-03-16T23:39:02.126Z,4.63
2023-03-16T23:41:51.262Z,4.37
2023-03-16T23:44:37.784Z,4.63
2023-03-16T23:47:24.343Z,4.70
2023-03-16T23:50:13.634Z,4.27
2023-03-16T23:53:00.244Z,4.53
2023-03-16T23:55:47.916Z,4.57
2023-03-16T23:58:36.169Z,4.47
